메인 페이지
METAR-TAF:

METAR-TAF

공항 :

코치, 인도

위도: 10-09-07N, 경도: 76-24-07E, 고도: 9m

현재 날씨관측

예보는 26분 전, 00:00시(UTC)에 발표되었습니다.
무풍
온도 24°C
습도 89%
기압 1009 hPa
시정: 4000m
고도 1500ft 상공 구름 조금
고도 9000ft 상공 구름 보통
연무

METAR: VOCI 220000Z 00000KT 4000 HZ FEW015 SCT090 24/22 Q1009 NOSIG

시각: 05:56 (00:26 UTC)

예보

예보는 1 시간 26분 전, 23:00시(UTC)에 발표되었습니다.
예보 대상 시간: 22일 00시부터 23일 06시까지 (UTC)
kt
시정: 4000m
고도 1500ft 상공 구름 조금
고도 8000ft 상공 구름 보통
연무
전환 중
22일 00시부터 22일 03시까지 (UTC)
5kt
시정: 2000m
박무
전환 중
22일 04시부터 22일 06시까지 (UTC)
서북서10kt
시정: 6000m
일시적
22일 13시부터 22일 16시까지 (UTC)
여러 방향의 바람 5kt
시정: 4000m
고도 1500ft 상공 구름 조금
고도 2500ft 상공 구름 조금, 적란운.
고도 8000ft 상공 구름 보통
전환 중
22일 18시부터 22일 20시까지 (UTC)
kt
시정: 3000m
고도 1500ft 상공 구름 조금
고도 8000ft 상공 구름 보통
연무
전환 중
23일 00시부터 23일 03시까지 (UTC)
5kt
시정: 2500m
박무

TAF: VOCI 212300Z 2200/2306 00000KT 4000 HZ FEW015 SCT080 BECMG 2200/2203 09005KT 2000 BR BECMG 2204/2206 29010KT 6000 TEMPO 2213/2216 VRB05KT 4000 HZ/TS FEW015 FEW025CB SCT080 BECMG 2218/2220 00000KT 3000 HZ FEW015 SCT080 BECMG 2300/2303 09005KT 2500 BR

4,000개 이상의 공항 관측 자료 및 예보 (METAR 및 TAF 보고).

지도상에서 검색 가능한 기상관측소가 노란 점과 빨간 점으로 표시되어 있습니다.

기상관측소 명을 보려면 표시 위로 마우스를 이동하세요.

날씨 관측과 예보를 보려면 클릭하세요.

지도 변경 : 확대하려면 엑스 표시가 있는 녹색 버튼, 축소하려면 빼기 표시가 있는 녹색 버튼, 다음 페이지의 지도를 보려면 녹색 화살표를 클릭하세요.


METAR-TAF: